Cross River, New York
Current Conditions -  °F | °C
As of 1:53 AM on Thursday 23 Oct 2014 (Local Time) from KDXR Reporting Station
Overcast Overcast  
Wind Chill: 51°   Ceiling: 2000
Heat Index: 51°   Visibility: 10mi
Dew Point: 44°   Wind: 13mph
Humidity: 77%   Direction: 20°NNE
Pressure: 29.77"   Gusts: 24mph
Location:  41.26°N, 73.61°W
Report Text: KDXR 230553Z AUTO 02011G21KT 340V050 10SM OVC020 11/07 A2977 RMK AO2 RAE31 SLP080 P0000 60033 T01060067 10106 20094 55005
Loading
Personal Weather Stations






























Interactive Weather Map
Tropical Storm Tracking
New forecast layout! Learn more

10-Day Weather Forecast

Advertisements
Track Severe Weather on mobile